sensor_id;sensor_type;location;lat;lon;timestamp;temperature;humidity
3727;DHT22;1879;45.876;12.300;2023-02-05T00:00:44;8.20;92.30
3727;DHT22;1879;45.876;12.300;2023-02-05T00:03:15;8.10;92.30
3727;DHT22;1879;45.876;12.300;2023-02-05T00:05:42;8.20;92.10
3727;DHT22;1879;45.876;12.300;2023-02-05T00:08:09;8.20;92.60
3727;DHT22;1879;45.876;12.300;2023-02-05T00:10:36;8.10;92.30
3727;DHT22;1879;45.876;12.300;2023-02-05T00:13:03;8.10;92.30
3727;DHT22;1879;45.876;12.300;2023-02-05T00:15:33;8.10;92.20
3727;DHT22;1879;45.876;12.300;2023-02-05T00:18:00;8.10;92.20
3727;DHT22;1879;45.876;12.300;2023-02-05T00:20:29;8.10;91.80
3727;DHT22;1879;45.876;12.300;2023-02-05T00:22:56;8.10;92.10
3727;DHT22;1879;45.876;12.300;2023-02-05T00:25:23;8.00;92.90
3727;DHT22;1879;45.876;12.300;2023-02-05T00:27:50;8.00;92.70
3727;DHT22;1879;45.876;12.300;2023-02-05T00:30:17;8.00;93.10
3727;DHT22;1879;45.876;12.300;2023-02-05T00:32:44;8.00;93.60
3727;DHT22;1879;45.876;12.300;2023-02-05T00:35:11;7.90;93.80
3727;DHT22;1879;45.876;12.300;2023-02-05T00:37:39;7.90;93.20
3727;DHT22;1879;45.876;12.300;2023-02-05T00:40:07;7.90;92.80
3727;DHT22;1879;45.876;12.300;2023-02-05T00:42:34;7.90;93.10
3727;DHT22;1879;45.876;12.300;2023-02-05T00:45:01;7.90;93.30
3727;DHT22;1879;45.876;12.300;2023-02-05T00:47:28;8.00;93.60
3727;DHT22;1879;45.876;12.300;2023-02-05T00:49:54;8.00;93.90
3727;DHT22;1879;45.876;12.300;2023-02-05T00:52:21;8.00;93.70
3727;DHT22;1879;45.876;12.300;2023-02-05T00:54:50;8.00;94.20
3727;DHT22;1879;45.876;12.300;2023-02-05T00:57:18;7.90;94.30
3727;DHT22;1879;45.876;12.300;2023-02-05T00:59:49;7.90;94.50
3727;DHT22;1879;45.876;12.300;2023-02-05T01:02:16;7.90;94.60
3727;DHT22;1879;45.876;12.300;2023-02-05T01:04:48;7.90;94.10
3727;DHT22;1879;45.876;12.300;2023-02-05T01:07:15;7.80;93.90
3727;DHT22;1879;45.876;12.300;2023-02-05T01:09:43;7.80;93.80
3727;DHT22;1879;45.876;12.300;2023-02-05T01:12:12;7.70;93.50
3727;DHT22;1879;45.876;12.300;2023-02-05T01:14:39;7.70;93.70
3727;DHT22;1879;45.876;12.300;2023-02-05T01:17:06;7.70;93.60
3727;DHT22;1879;45.876;12.300;2023-02-05T01:19:34;7.70;93.90
3727;DHT22;1879;45.876;12.300;2023-02-05T01:22:01;7.70;94.00
3727;DHT22;1879;45.876;12.300;2023-02-05T01:24:28;7.70;94.00
3727;DHT22;1879;45.876;12.300;2023-02-05T01:26:55;7.70;94.00
3727;DHT22;1879;45.876;12.300;2023-02-05T01:29:25;7.60;93.80
3727;DHT22;1879;45.876;12.300;2023-02-05T01:31:52;7.50;93.70
3727;DHT22;1879;45.876;12.300;2023-02-05T01:34:20;7.40;93.90
3727;DHT22;1879;45.876;12.300;2023-02-05T01:36:47;7.30;94.00
3727;DHT22;1879;45.876;12.300;2023-02-05T01:39:14;7.30;94.00
3727;DHT22;1879;45.876;12.300;2023-02-05T01:41:41;7.20;94.00
3727;DHT22;1879;45.876;12.300;2023-02-05T01:44:12;7.30;93.80
3727;DHT22;1879;45.876;12.300;2023-02-05T01:46:41;7.30;93.50
3727;DHT22;1879;45.876;12.300;2023-02-05T01:49:12;7.30;93.60
3727;DHT22;1879;45.876;12.300;2023-02-05T01:51:40;7.40;93.60
3727;DHT22;1879;45.876;12.300;2023-02-05T01:54:07;7.40;93.40
3727;DHT22;1879;45.876;12.300;2023-02-05T01:56:37;7.40;93.30
3727;DHT22;1879;45.876;12.300;2023-02-05T01:59:09;7.40;93.30
3727;DHT22;1879;45.876;12.300;2023-02-05T02:01:39;7.40;93.00
3727;DHT22;1879;45.876;12.300;2023-02-05T02:04:06;7.40;92.60
3727;DHT22;1879;45.876;12.300;2023-02-05T02:06:35;7.40;92.50
3727;DHT22;1879;45.876;12.300;2023-02-05T02:09:03;7.40;92.70
3727;DHT22;1879;45.876;12.300;2023-02-05T02:11:34;7.40;92.40
3727;DHT22;1879;45.876;12.300;2023-02-05T02:14:03;7.50;92.20
3727;DHT22;1879;45.876;12.300;2023-02-05T02:16:33;7.50;92.20
3727;DHT22;1879;45.876;12.300;2023-02-05T02:19:06;7.50;92.30
3727;DHT22;1879;45.876;12.300;2023-02-05T02:27:56;7.60;92.00
3727;DHT22;1879;45.876;12.300;2023-02-05T02:30:27;7.70;92.30
3727;DHT22;1879;45.876;12.300;2023-02-05T02:33:03;7.70;92.30
3727;DHT22;1879;45.876;12.300;2023-02-05T02:35:35;7.70;92.40
3727;DHT22;1879;45.876;12.300;2023-02-05T02:38:09;7.60;92.70
3727;DHT22;1879;45.876;12.300;2023-02-05T02:40:41;7.60;92.80
3727;DHT22;1879;45.876;12.300;2023-02-05T02:43:12;7.60;92.90
3727;DHT22;1879;45.876;12.300;2023-02-05T02:45:44;7.60;92.80
3727;DHT22;1879;45.876;12.300;2023-02-05T02:48:14;7.60;92.90
3727;DHT22;1879;45.876;12.300;2023-02-05T02:50:45;7.60;93.50
3727;DHT22;1879;45.876;12.300;2023-02-05T02:53:16;7.50;93.30
3727;DHT22;1879;45.876;12.300;2023-02-05T02:55:45;7.50;93.00
3727;DHT22;1879;45.876;12.300;2023-02-05T02:58:18;7.50;93.30
3727;DHT22;1879;45.876;12.300;2023-02-05T03:00:47;7.50;93.50
3727;DHT22;1879;45.876;12.300;2023-02-05T03:03:16;7.50;93.90
3727;DHT22;1879;45.876;12.300;2023-02-05T03:05:47;7.50;94.00
3727;DHT22;1879;45.876;12.300;2023-02-05T03:08:18;7.30;94.40
3727;DHT22;1879;45.876;12.300;2023-02-05T03:10:50;7.20;93.80
3727;DHT22;1879;45.876;12.300;2023-02-05T03:13:20;7.10;93.70
3727;DHT22;1879;45.876;12.300;2023-02-05T03:15:47;7.00;93.90
3727;DHT22;1879;45.876;12.300;2023-02-05T03:18:17;6.90;94.30
3727;DHT22;1879;45.876;12.300;2023-02-05T03:20:49;6.80;94.20
3727;DHT22;1879;45.876;12.300;2023-02-05T03:23:16;6.90;94.20
3727;DHT22;1879;45.876;12.300;2023-02-05T03:25:43;6.90;93.20
3727;DHT22;1879;45.876;12.300;2023-02-05T03:28:10;7.00;92.10
3727;DHT22;1879;45.876;12.300;2023-02-05T03:30:47;7.10;92.20
3727;DHT22;1879;45.876;12.300;2023-02-05T03:33:37;7.20;91.80
3727;DHT22;1879;45.876;12.300;2023-02-05T03:36:12;7.30;91.20
3727;DHT22;1879;45.876;12.300;2023-02-05T03:38:51;7.30;91.00
3727;DHT22;1879;45.876;12.300;2023-02-05T03:41:31;7.40;90.70
3727;DHT22;1879;45.876;12.300;2023-02-05T03:44:21;7.40;90.80
3727;DHT22;1879;45.876;12.300;2023-02-05T03:46:57;7.50;90.70
3727;DHT22;1879;45.876;12.300;2023-02-05T03:49:31;7.60;90.80
3727;DHT22;1879;45.876;12.300;2023-02-05T03:52:05;7.60;91.80
3727;DHT22;1879;45.876;12.300;2023-02-05T03:54:37;7.50;92.50
3727;DHT22;1879;45.876;12.300;2023-02-05T03:57:11;7.50;92.30
3727;DHT22;1879;45.876;12.300;2023-02-05T03:59:43;7.60;92.40
3727;DHT22;1879;45.876;12.300;2023-02-05T04:02:12;7.50;92.40
3727;DHT22;1879;45.876;12.300;2023-02-05T04:04:39;7.50;92.50
3727;DHT22;1879;45.876;12.300;2023-02-05T04:07:06;7.50;93.00
3727;DHT22;1879;45.876;12.300;2023-02-05T04:09:33;7.40;92.70
3727;DHT22;1879;45.876;12.300;2023-02-05T04:12:00;7.40;92.90
3727;DHT22;1879;45.876;12.300;2023-02-05T04:14:27;7.40;93.10
3727;DHT22;1879;45.876;12.300;2023-02-05T04:16:54;7.40;93.10
3727;DHT22;1879;45.876;12.300;2023-02-05T04:19:22;7.40;93.10
3727;DHT22;1879;45.876;12.300;2023-02-05T04:21:49;7.30;93.00
3727;DHT22;1879;45.876;12.300;2023-02-05T04:24:16;7.30;93.10
3727;DHT22;1879;45.876;12.300;2023-02-05T04:26:43;7.20;92.50
3727;DHT22;1879;45.876;12.300;2023-02-05T04:29:10;7.20;92.50
3727;DHT22;1879;45.876;12.300;2023-02-05T04:31:36;7.20;92.50
3727;DHT22;1879;45.876;12.300;2023-02-05T04:34:03;7.30;92.50
3727;DHT22;1879;45.876;12.300;2023-02-05T04:36:32;7.30;92.40
3727;DHT22;1879;45.876;12.300;2023-02-05T04:38:58;7.30;92.50
3727;DHT22;1879;45.876;12.300;2023-02-05T04:41:25;7.40;93.30
3727;DHT22;1879;45.876;12.300;2023-02-05T04:43:52;7.30;93.30
3727;DHT22;1879;45.876;12.300;2023-02-05T04:46:19;7.30;93.60
3727;DHT22;1879;45.876;12.300;2023-02-05T04:48:46;7.30;94.00
3727;DHT22;1879;45.876;12.300;2023-02-05T04:51:13;7.30;94.20
3727;DHT22;1879;45.876;12.300;2023-02-05T04:53:43;7.30;94.30
3727;DHT22;1879;45.876;12.300;2023-02-05T04:56:11;7.30;94.50
3727;DHT22;1879;45.876;12.300;2023-02-05T04:58:39;7.40;94.70
3727;DHT22;1879;45.876;12.300;2023-02-05T05:01:10;7.40;94.80
3727;DHT22;1879;45.876;12.300;2023-02-05T05:03:37;7.40;95.00
3727;DHT22;1879;45.876;12.300;2023-02-05T05:06:05;7.30;95.10
3727;DHT22;1879;45.876;12.300;2023-02-05T05:08:32;7.30;95.00
3727;DHT22;1879;45.876;12.300;2023-02-05T05:11:04;7.30;94.60
3727;DHT22;1879;45.876;12.300;2023-02-05T05:13:32;7.30;94.40
3727;DHT22;1879;45.876;12.300;2023-02-05T05:15:59;7.30;94.20
3727;DHT22;1879;45.876;12.300;2023-02-05T05:18:29;7.30;94.10
3727;DHT22;1879;45.876;12.300;2023-02-05T05:20:56;7.20;93.60
3727;DHT22;1879;45.876;12.300;2023-02-05T05:23:23;7.10;93.00
3727;DHT22;1879;45.876;12.300;2023-02-05T05:25:50;7.00;92.50
3727;DHT22;1879;45.876;12.300;2023-02-05T05:28:18;7.00;92.20
3727;DHT22;1879;45.876;12.300;2023-02-05T05:30:46;6.90;91.60
3727;DHT22;1879;45.876;12.300;2023-02-05T05:33:13;6.90;91.10
3727;DHT22;1879;45.876;12.300;2023-02-05T05:35:40;6.90;90.80
3727;DHT22;1879;45.876;12.300;2023-02-05T05:38:07;6.80;90.60
3727;DHT22;1879;45.876;12.300;2023-02-05T05:40:34;6.80;90.40
3727;DHT22;1879;45.876;12.300;2023-02-05T05:43:21;6.80;90.00
3727;DHT22;1879;45.876;12.300;2023-02-05T05:46:06;6.80;90.00
3727;DHT22;1879;45.876;12.300;2023-02-05T05:48:33;6.90;90.20
3727;DHT22;1879;45.876;12.300;2023-02-05T05:51:00;6.90;90.10
3727;DHT22;1879;45.876;12.300;2023-02-05T05:53:27;6.80;89.30
3727;DHT22;1879;45.876;12.300;2023-02-05T05:55:54;6.80;89.30
3727;DHT22;1879;45.876;12.300;2023-02-05T05:58:22;6.70;88.50
3727;DHT22;1879;45.876;12.300;2023-02-05T06:00:49;6.60;87.90
3727;DHT22;1879;45.876;12.300;2023-02-05T06:03:16;6.70;87.60
3727;DHT22;1879;45.876;12.300;2023-02-05T06:05:43;6.70;86.50
3727;DHT22;1879;45.876;12.300;2023-02-05T06:08:10;6.60;85.60
3727;DHT22;1879;45.876;12.300;2023-02-05T06:10:41;6.50;84.70
3727;DHT22;1879;45.876;12.300;2023-02-05T06:13:08;6.50;84.40
3727;DHT22;1879;45.876;12.300;2023-02-05T06:15:36;6.50;84.30
3727;DHT22;1879;45.876;12.300;2023-02-05T06:18:03;6.50;84.00
3727;DHT22;1879;45.876;12.300;2023-02-05T06:20:30;6.50;83.70
3727;DHT22;1879;45.876;12.300;2023-02-05T06:22:57;6.50;83.60
3727;DHT22;1879;45.876;12.300;2023-02-05T06:25:24;6.40;83.70
3727;DHT22;1879;45.876;12.300;2023-02-05T06:27:51;6.40;83.30
3727;DHT22;1879;45.876;12.300;2023-02-05T06:30:18;6.40;83.20
3727;DHT22;1879;45.876;12.300;2023-02-05T06:32:46;6.30;82.80
3727;DHT22;1879;45.876;12.300;2023-02-05T06:35:13;6.30;82.60
3727;DHT22;1879;45.876;12.300;2023-02-05T06:37:41;6.30;82.60
3727;DHT22;1879;45.876;12.300;2023-02-05T06:40:11;6.30;85.50
3727;DHT22;1879;45.876;12.300;2023-02-05T06:42:40;6.20;82.00
3727;DHT22;1879;45.876;12.300;2023-02-05T06:45:07;6.20;84.80
3727;DHT22;1879;45.876;12.300;2023-02-05T06:47:34;6.20;81.50
3727;DHT22;1879;45.876;12.300;2023-02-05T06:50:03;6.10;81.60
3727;DHT22;1879;45.876;12.300;2023-02-05T06:52:30;6.10;81.10
3727;DHT22;1879;45.876;12.300;2023-02-05T06:54:58;6.10;81.50
3727;DHT22;1879;45.876;12.300;2023-02-05T06:57:25;6.10;81.60
3727;DHT22;1879;45.876;12.300;2023-02-05T06:59:51;6.10;81.60
3727;DHT22;1879;45.876;12.300;2023-02-05T07:02:18;6.20;81.10
3727;DHT22;1879;45.876;12.300;2023-02-05T07:04:45;6.20;81.40
3727;DHT22;1879;45.876;12.300;2023-02-05T07:07:14;6.20;80.50
3727;DHT22;1879;45.876;12.300;2023-02-05T07:09:41;6.20;80.20
3727;DHT22;1879;45.876;12.300;2023-02-05T07:12:09;6.30;79.60
3727;DHT22;1879;45.876;12.300;2023-02-05T07:14:36;6.20;79.50
3727;DHT22;1879;45.876;12.300;2023-02-05T07:17:03;6.20;79.20
3727;DHT22;1879;45.876;12.300;2023-02-05T07:19:30;6.20;79.60
3727;DHT22;1879;45.876;12.300;2023-02-05T07:21:57;6.30;79.50
3727;DHT22;1879;45.876;12.300;2023-02-05T07:24:26;6.40;78.80
3727;DHT22;1879;45.876;12.300;2023-02-05T07:26:53;6.40;78.30
3727;DHT22;1879;45.876;12.300;2023-02-05T07:29:20;6.40;78.10
3727;DHT22;1879;45.876;12.300;2023-02-05T07:31:48;6.30;78.10
3727;DHT22;1879;45.876;12.300;2023-02-05T07:34:15;6.40;78.00
3727;DHT22;1879;45.876;12.300;2023-02-05T07:36:42;6.40;77.50
3727;DHT22;1879;45.876;12.300;2023-02-05T07:39:09;6.40;77.00
3727;DHT22;1879;45.876;12.300;2023-02-05T07:41:37;6.40;77.00
3727;DHT22;1879;45.876;12.300;2023-02-05T07:44:04;6.40;76.40
3727;DHT22;1879;45.876;12.300;2023-02-05T07:46:32;6.40;76.70
3727;DHT22;1879;45.876;12.300;2023-02-05T07:48:59;6.50;76.60
3727;DHT22;1879;45.876;12.300;2023-02-05T07:51:26;6.50;76.20
3727;DHT22;1879;45.876;12.300;2023-02-05T07:53:53;6.50;75.40
3727;DHT22;1879;45.876;12.300;2023-02-05T07:56:20;6.50;75.60
3727;DHT22;1879;45.876;12.300;2023-02-05T07:58:48;6.50;75.60
3727;DHT22;1879;45.876;12.300;2023-02-05T08:01:16;6.60;75.70
3727;DHT22;1879;45.876;12.300;2023-02-05T08:03:43;6.60;75.30
3727;DHT22;1879;45.876;12.300;2023-02-05T08:06:13;6.60;75.30
3727;DHT22;1879;45.876;12.300;2023-02-05T08:08:41;6.60;75.40
3727;DHT22;1879;45.876;12.300;2023-02-05T08:11:12;6.60;74.50
3727;DHT22;1879;45.876;12.300;2023-02-05T08:13:40;6.60;74.00
3727;DHT22;1879;45.876;12.300;2023-02-05T08:16:10;6.70;74.10
3727;DHT22;1879;45.876;12.300;2023-02-05T08:18:37;6.70;74.20
3727;DHT22;1879;45.876;12.300;2023-02-05T08:21:04;6.60;73.90
3727;DHT22;1879;45.876;12.300;2023-02-05T08:23:31;6.60;73.30
3727;DHT22;1879;45.876;12.300;2023-02-05T08:25:59;6.60;73.60
3727;DHT22;1879;45.876;12.300;2023-02-05T08:28:27;6.60;72.50
3727;DHT22;1879;45.876;12.300;2023-02-05T08:30:54;6.60;72.30
3727;DHT22;1879;45.876;12.300;2023-02-05T08:33:23;6.60;72.30
3727;DHT22;1879;45.876;12.300;2023-02-05T08:35:50;6.70;71.80
3727;DHT22;1879;45.876;12.300;2023-02-05T08:38:17;6.70;71.10
3727;DHT22;1879;45.876;12.300;2023-02-05T08:40:44;6.80;71.40
3727;DHT22;1879;45.876;12.300;2023-02-05T08:43:11;6.90;70.10
3727;DHT22;1879;45.876;12.300;2023-02-05T08:45:38;7.00;69.70
3727;DHT22;1879;45.876;12.300;2023-02-05T08:48:05;7.10;69.10
3727;DHT22;1879;45.876;12.300;2023-02-05T08:50:33;7.10;68.60
3727;DHT22;1879;45.876;12.300;2023-02-05T08:53:00;7.20;68.60
3727;DHT22;1879;45.876;12.300;2023-02-05T08:55:27;7.30;71.50
3727;DHT22;1879;45.876;12.300;2023-02-05T08:57:54;7.40;68.50
3727;DHT22;1879;45.876;12.300;2023-02-05T09:00:22;7.40;68.60
3727;DHT22;1879;45.876;12.300;2023-02-05T09:02:49;7.30;66.90
3727;DHT22;1879;45.876;12.300;2023-02-05T09:05:16;7.30;67.50
3727;DHT22;1879;45.876;12.300;2023-02-05T09:07:44;7.20;66.60
3727;DHT22;1879;45.876;12.300;2023-02-05T09:10:12;7.20;66.90
3727;DHT22;1879;45.876;12.300;2023-02-05T09:12:39;7.30;66.50
3727;DHT22;1879;45.876;12.300;2023-02-05T09:15:07;7.40;67.10
3727;DHT22;1879;45.876;12.300;2023-02-05T09:17:34;7.50;66.00
3727;DHT22;1879;45.876;12.300;2023-02-05T09:20:01;7.60;66.60
3727;DHT22;1879;45.876;12.300;2023-02-05T09:22:29;7.60;65.60
3727;DHT22;1879;45.876;12.300;2023-02-05T09:24:57;7.70;65.50
3727;DHT22;1879;45.876;12.300;2023-02-05T09:27:24;7.80;65.00
3727;DHT22;1879;45.876;12.300;2023-02-05T09:29:51;7.90;64.70
3727;DHT22;1879;45.876;12.300;2023-02-05T09:32:18;8.00;65.00
3727;DHT22;1879;45.876;12.300;2023-02-05T09:34:45;8.00;64.60
3727;DHT22;1879;45.876;12.300;2023-02-05T09:37:13;8.00;64.70
3727;DHT22;1879;45.876;12.300;2023-02-05T09:39:40;8.10;64.60
3727;DHT22;1879;45.876;12.300;2023-02-05T09:42:13;8.20;64.40
3727;DHT22;1879;45.876;12.300;2023-02-05T09:45:06;8.20;63.30
3727;DHT22;1879;45.876;12.300;2023-02-05T09:47:41;8.40;64.00
3727;DHT22;1879;45.876;12.300;2023-02-05T09:50:15;8.40;63.10
3727;DHT22;1879;45.876;12.300;2023-02-05T09:52:45;8.40;62.70
3727;DHT22;1879;45.876;12.300;2023-02-05T09:55:19;8.20;62.20
3727;DHT22;1879;45.876;12.300;2023-02-05T09:57:49;8.20;63.50
3727;DHT22;1879;45.876;12.300;2023-02-05T10:00:20;8.10;61.60
3727;DHT22;1879;45.876;12.300;2023-02-05T10:02:54;8.10;61.80
3727;DHT22;1879;45.876;12.300;2023-02-05T10:05:25;8.10;61.20
3727;DHT22;1879;45.876;12.300;2023-02-05T10:08:00;8.00;61.00
3727;DHT22;1879;45.876;12.300;2023-02-05T10:10:35;8.10;61.70
3727;DHT22;1879;45.876;12.300;2023-02-05T10:13:23;8.20;61.30
3727;DHT22;1879;45.876;12.300;2023-02-05T10:16:01;8.20;62.20
3727;DHT22;1879;45.876;12.300;2023-02-05T10:18:45;8.40;62.80
3727;DHT22;1879;45.876;12.300;2023-02-05T10:21:28;8.50;62.70
3727;DHT22;1879;45.876;12.300;2023-02-05T10:24:11;8.50;62.40
3727;DHT22;1879;45.876;12.300;2023-02-05T10:26:45;8.60;62.70
3727;DHT22;1879;45.876;12.300;2023-02-05T10:29:26;8.70;63.00
3727;DHT22;1879;45.876;12.300;2023-02-05T10:32:07;8.80;63.00
3727;DHT22;1879;45.876;12.300;2023-02-05T10:34:48;9.10;64.40
3727;DHT22;1879;45.876;12.300;2023-02-05T10:37:20;8.80;62.00
3727;DHT22;1879;45.876;12.300;2023-02-05T10:39:47;8.80;61.80
3727;DHT22;1879;45.876;12.300;2023-02-05T10:42:23;8.90;63.20
3727;DHT22;1879;45.876;12.300;2023-02-05T10:45:00;9.00;62.10
3727;DHT22;1879;45.876;12.300;2023-02-05T10:47:41;9.00;60.60
3727;DHT22;1879;45.876;12.300;2023-02-05T10:50:18;9.20;61.10
3727;DHT22;1879;45.876;12.300;2023-02-05T10:52:48;9.20;59.80
3727;DHT22;1879;45.876;12.300;2023-02-05T10:55:16;9.10;60.10
3727;DHT22;1879;45.876;12.300;2023-02-05T10:57:43;9.10;60.30
3727;DHT22;1879;45.876;12.300;2023-02-05T11:00:18;9.20;60.50
3727;DHT22;1879;45.876;12.300;2023-02-05T11:02:48;9.20;59.80
3727;DHT22;1879;45.876;12.300;2023-02-05T11:05:21;9.30;59.70
3727;DHT22;1879;45.876;12.300;2023-02-05T11:07:51;9.40;59.40
3727;DHT22;1879;45.876;12.300;2023-02-05T11:10:20;9.70;59.80
3727;DHT22;1879;45.876;12.300;2023-02-05T11:12:49;9.90;58.50
3727;DHT22;1879;45.876;12.300;2023-02-05T11:15:22;10.10;57.00
3727;DHT22;1879;45.876;12.300;2023-02-05T11:17:50;10.30;56.70
3727;DHT22;1879;45.876;12.300;2023-02-05T11:20:25;10.40;56.80
3727;DHT22;1879;45.876;12.300;2023-02-05T11:23:06;10.50;55.60
3727;DHT22;1879;45.876;12.300;2023-02-05T11:25:33;10.80;56.80
3727;DHT22;1879;45.876;12.300;2023-02-05T11:28:01;10.80;55.60
3727;DHT22;1879;45.876;12.300;2023-02-05T11:30:31;10.70;55.20
3727;DHT22;1879;45.876;12.300;2023-02-05T11:33:17;10.80;54.70
3727;DHT22;1879;45.876;12.300;2023-02-05T11:35:53;10.90;53.50
3727;DHT22;1879;45.876;12.300;2023-02-05T11:38:25;11.20;53.90
3727;DHT22;1879;45.876;12.300;2023-02-05T11:40:57;11.20;65.20
3727;DHT22;1879;45.876;12.300;2023-02-05T11:43:27;11.20;63.20
3727;DHT22;1879;45.876;12.300;2023-02-05T11:45:58;11.20;62.40
3727;DHT22;1879;45.876;12.300;2023-02-05T11:48:31;11.10;54.30
3727;DHT22;1879;45.876;12.300;2023-02-05T11:51:00;11.20;59.00
3727;DHT22;1879;45.876;12.300;2023-02-05T11:53:27;11.40;59.30
3727;DHT22;1879;45.876;12.300;2023-02-05T11:55:59;11.60;69.70
3727;DHT22;1879;45.876;12.300;2023-02-05T11:58:28;11.80;66.90
3727;DHT22;1879;45.876;12.300;2023-02-05T12:00:59;12.30;52.90
3727;DHT22;1879;45.876;12.300;2023-02-05T12:03:28;11.90;52.00
3727;DHT22;1879;45.876;12.300;2023-02-05T12:06:04;11.40;52.00
3727;DHT22;1879;45.876;12.300;2023-02-05T12:08:41;11.10;52.30
3727;DHT22;1879;45.876;12.300;2023-02-05T12:11:25;10.80;52.30
3727;DHT22;1879;45.876;12.300;2023-02-05T12:14:01;10.70;53.50
3727;DHT22;1879;45.876;12.300;2023-02-05T12:16:44;10.60;54.30
3727;DHT22;1879;45.876;12.300;2023-02-05T12:19:17;10.60;53.70
3727;DHT22;1879;45.876;12.300;2023-02-05T12:21:48;10.50;53.60
3727;DHT22;1879;45.876;12.300;2023-02-05T12:27:36;10.10;54.70
3727;DHT22;1879;45.876;12.300;2023-02-05T12:30:34;10.00;54.60
3727;DHT22;1879;45.876;12.300;2023-02-05T12:33:14;10.10;55.00
3727;DHT22;1879;45.876;12.300;2023-02-05T12:35:57;10.00;54.80
3727;DHT22;1879;45.876;12.300;2023-02-05T12:38:40;10.00;54.90
3727;DHT22;1879;45.876;12.300;2023-02-05T12:41:19;10.00;54.60
3727;DHT22;1879;45.876;12.300;2023-02-05T12:43:49;9.80;55.60
3727;DHT22;1879;45.876;12.300;2023-02-05T12:46:36;9.70;55.70
3727;DHT22;1879;45.876;12.300;2023-02-05T12:49:24;9.80;56.10
3727;DHT22;1879;45.876;12.300;2023-02-05T12:52:08;9.90;56.10
3727;DHT22;1879;45.876;12.300;2023-02-05T12:54:47;9.70;55.60
3727;DHT22;1879;45.876;12.300;2023-02-05T12:57:20;9.60;55.70
3727;DHT22;1879;45.876;12.300;2023-02-05T12:59:51;9.60;56.10
3727;DHT22;1879;45.876;12.300;2023-02-05T13:02:24;9.60;56.70
3727;DHT22;1879;45.876;12.300;2023-02-05T13:04:59;9.50;56.10
3727;DHT22;1879;45.876;12.300;2023-02-05T13:07:32;9.50;57.60
3727;DHT22;1879;45.876;12.300;2023-02-05T13:10:03;9.50;57.50
3727;DHT22;1879;45.876;12.300;2023-02-05T13:12:34;9.40;56.90
3727;DHT22;1879;45.876;12.300;2023-02-05T13:15:12;9.30;56.80
3727;DHT22;1879;45.876;12.300;2023-02-05T13:17:52;9.20;57.10
3727;DHT22;1879;45.876;12.300;2023-02-05T13:20:24;9.10;57.60
3727;DHT22;1879;45.876;12.300;2023-02-05T13:23:14;9.00;57.70
3727;DHT22;1879;45.876;12.300;2023-02-05T13:26:01;8.90;58.10
3727;DHT22;1879;45.876;12.300;2023-02-05T13:28:47;9.00;58.60
3727;DHT22;1879;45.876;12.300;2023-02-05T13:31:24;8.90;58.70
3727;DHT22;1879;45.876;12.300;2023-02-05T13:33:54;8.80;58.50
3727;DHT22;1879;45.876;12.300;2023-02-05T13:42:44;8.50;60.00
3727;DHT22;1879;45.876;12.300;2023-02-05T13:45:25;8.50;60.30
3727;DHT22;1879;45.876;12.300;2023-02-05T13:51:38;8.50;60.50
3727;DHT22;1879;45.876;12.300;2023-02-05T13:58:04;8.50;60.10
3727;DHT22;1879;45.876;12.300;2023-02-05T14:00:34;8.40;60.40
3727;DHT22;1879;45.876;12.300;2023-02-05T14:03:03;8.50;61.30
3727;DHT22;1879;45.876;12.300;2023-02-05T14:05:38;8.50;61.10
3727;DHT22;1879;45.876;12.300;2023-02-05T14:08:19;8.50;60.90
3727;DHT22;1879;45.876;12.300;2023-02-05T14:10:56;8.40;60.60
3727;DHT22;1879;45.876;12.300;2023-02-05T14:13:25;8.40;61.90
3727;DHT22;1879;45.876;12.300;2023-02-05T14:15:55;8.40;61.40
3727;DHT22;1879;45.876;12.300;2023-02-05T14:18:45;8.40;61.10
3727;DHT22;1879;45.876;12.300;2023-02-05T14:21:47;8.40;61.00
3727;DHT22;1879;45.876;12.300;2023-02-05T14:24:46;8.40;61.20
3727;DHT22;1879;45.876;12.300;2023-02-05T14:27:47;8.30;61.60
3727;DHT22;1879;45.876;12.300;2023-02-05T14:30:48;8.20;61.90
3727;DHT22;1879;45.876;12.300;2023-02-05T14:33:36;8.20;61.60
3727;DHT22;1879;45.876;12.300;2023-02-05T14:36:34;8.30;62.20
3727;DHT22;1879;45.876;12.300;2023-02-05T14:39:04;8.30;62.30
3727;DHT22;1879;45.876;12.300;2023-02-05T14:44:17;8.30;61.90
3727;DHT22;1879;45.876;12.300;2023-02-05T14:47:01;8.40;62.20
3727;DHT22;1879;45.876;12.300;2023-02-05T14:49:36;8.40;62.30
3727;DHT22;1879;45.876;12.300;2023-02-05T14:52:06;8.40;62.40
3727;DHT22;1879;45.876;12.300;2023-02-05T14:54:45;8.40;62.10
3727;DHT22;1879;45.876;12.300;2023-02-05T14:57:19;8.40;62.10
3727;DHT22;1879;45.876;12.300;2023-02-05T14:59:52;8.40;62.70
3727;DHT22;1879;45.876;12.300;2023-02-05T15:02:51;8.30;62.20
3727;DHT22;1879;45.876;12.300;2023-02-05T15:05:24;8.30;62.70
3727;DHT22;1879;45.876;12.300;2023-02-05T15:08:01;8.20;62.80
3727;DHT22;1879;45.876;12.300;2023-02-05T15:10:36;8.30;63.20
3727;DHT22;1879;45.876;12.300;2023-02-05T15:13:10;8.30;63.40
3727;DHT22;1879;45.876;12.300;2023-02-05T15:15:38;8.20;63.30
3727;DHT22;1879;45.876;12.300;2023-02-05T15:18:12;8.10;63.70
3727;DHT22;1879;45.876;12.300;2023-02-05T15:20:45;8.10;63.50
3727;DHT22;1879;45.876;12.300;2023-02-05T15:23:20;8.10;63.80
3727;DHT22;1879;45.876;12.300;2023-02-05T15:25:54;8.00;63.80
3727;DHT22;1879;45.876;12.300;2023-02-05T15:28:31;8.00;64.40
3727;DHT22;1879;45.876;12.300;2023-02-05T15:34:01;8.10;64.50
3727;DHT22;1879;45.876;12.300;2023-02-05T15:36:34;8.00;64.00
3727;DHT22;1879;45.876;12.300;2023-02-05T15:39:07;8.00;63.90
3727;DHT22;1879;45.876;12.300;2023-02-05T15:41:36;8.10;64.20
3727;DHT22;1879;45.876;12.300;2023-02-05T15:44:18;8.10;64.70
3727;DHT22;1879;45.876;12.300;2023-02-05T15:46:47;8.10;64.30
3727;DHT22;1879;45.876;12.300;2023-02-05T15:49:15;8.10;64.60
3727;DHT22;1879;45.876;12.300;2023-02-05T15:51:45;8.00;64.50
3727;DHT22;1879;45.876;12.300;2023-02-05T15:54:17;8.00;65.70
3727;DHT22;1879;45.876;12.300;2023-02-05T15:56:48;8.00;65.60
3727;DHT22;1879;45.876;12.300;2023-02-05T15:59:18;8.00;65.10
3727;DHT22;1879;45.876;12.300;2023-02-05T16:01:49;8.00;64.90
3727;DHT22;1879;45.876;12.300;2023-02-05T16:04:19;8.00;64.90
3727;DHT22;1879;45.876;12.300;2023-02-05T16:06:51;8.10;65.30
3727;DHT22;1879;45.876;12.300;2023-02-05T16:09:19;8.10;65.00
3727;DHT22;1879;45.876;12.300;2023-02-05T16:11:47;8.00;65.20
3727;DHT22;1879;45.876;12.300;2023-02-05T16:14:16;7.90;64.50
3727;DHT22;1879;45.876;12.300;2023-02-05T16:16:56;7.70;63.90
3727;DHT22;1879;45.876;12.300;2023-02-05T16:19:26;7.60;64.90
3727;DHT22;1879;45.876;12.300;2023-02-05T16:21:58;7.60;65.10
3727;DHT22;1879;45.876;12.300;2023-02-05T16:24:29;7.50;64.50
3727;DHT22;1879;45.876;12.300;2023-02-05T16:27:01;7.40;64.30
3727;DHT22;1879;45.876;12.300;2023-02-05T16:29:32;7.40;64.80
3727;DHT22;1879;45.876;12.300;2023-02-05T16:32:04;7.40;65.30
3727;DHT22;1879;45.876;12.300;2023-02-05T16:34:33;7.40;65.70
3727;DHT22;1879;45.876;12.300;2023-02-05T16:37:04;7.40;65.70
3727;DHT22;1879;45.876;12.300;2023-02-05T16:39:37;7.40;65.20
3727;DHT22;1879;45.876;12.300;2023-02-05T16:42:07;7.40;65.00
3727;DHT22;1879;45.876;12.300;2023-02-05T16:44:35;7.40;65.40
3727;DHT22;1879;45.876;12.300;2023-02-05T16:47:15;7.40;64.90
3727;DHT22;1879;45.876;12.300;2023-02-05T16:49:44;7.40;65.10
3727;DHT22;1879;45.876;12.300;2023-02-05T16:52:25;7.40;65.30
3727;DHT22;1879;45.876;12.300;2023-02-05T16:54:53;7.40;65.30